Time;durP1;ratioP1;P1;durP2;ratioP2;P2;SDS_P1;SDS_P2;PMS_P1;PMS_P2;Temp;Humidity;BMP_temperature;BMP_pressure;BME280_temperature;BME280_humidity;BME280_pressure;Samples;Min_cycle;Max_cycle;Signal;HPM_P1;HPM_P2
2021/08/18 00:01:08;;;;;;;18.20;11.13;;;17.10;99.90;;;;;;5095132;28;20200;-60
2021/08/18 00:03:35;;;;;;;18.98;10.77;;;17.10;99.90;;;;;;5095349;28;20299;-60
2021/08/18 00:06:01;;;;;;;16.20;11.00;;;17.10;99.90;;;;;;5094932;28;20716;-59
2021/08/18 00:08:28;;;;;;;17.77;11.50;;;17.00;99.90;;;;;;5095017;28;20207;-60
2021/08/18 00:10:55;;;;;;;17.85;11.45;;;17.00;99.90;;;;;;5094941;28;20212;-60
2021/08/18 00:13:24;;;;;;;15.75;10.98;;;17.00;99.90;;;;;;5094744;28;20619;-60
2021/08/18 00:15:51;;;;;;;17.37;11.03;;;17.00;99.90;;;;;;5094704;28;20199;-60
2021/08/18 00:18:19;;;;;;;16.42;11.13;;;17.00;99.90;;;;;;5094649;28;20249;-60
2021/08/18 00:20:46;;;;;;;19.60;11.57;;;16.90;99.90;;;;;;5094598;28;20238;-60
2021/08/18 00:23:13;;;;;;;18.70;11.35;;;16.90;99.90;;;;;;5094425;28;20261;-58
2021/08/18 00:25:39;;;;;;;16.85;11.82;;;16.90;99.90;;;;;;5094351;28;20207;-60
2021/08/18 00:28:07;;;;;;;17.47;10.83;;;16.90;99.90;;;;;;5094467;28;20200;-59
2021/08/18 00:30:34;;;;;;;18.13;11.23;;;16.90;99.90;;;;;;5094620;28;20204;-58
2021/08/18 00:33:00;;;;;;;17.80;10.90;;;16.90;99.90;;;;;;5094341;28;20233;-58
2021/08/18 00:35:28;;;;;;;19.15;11.05;;;17.00;99.90;;;;;;5094269;28;20631;-59
2021/08/18 00:37:56;;;;;;;16.20;10.60;;;17.00;99.90;;;;;;5094289;28;20285;-59
2021/08/18 00:40:22;;;;;;;17.35;10.77;;;17.00;99.90;;;;;;5094494;28;20208;-59
2021/08/18 00:42:49;;;;;;;17.07;11.27;;;17.00;99.90;;;;;;5094166;28;20672;-59
2021/08/18 00:45:17;;;;;;;15.05;11.02;;;17.00;99.90;;;;;;5093948;28;20675;-59
2021/08/18 00:47:45;;;;;;;20.47;11.27;;;17.00;99.90;;;;;;5094167;28;20739;-60
2021/08/18 00:50:14;;;;;;;15.33;10.17;;;17.10;99.90;;;;;;5094024;28;20579;-59
2021/08/18 00:52:42;;;;;;;15.33;10.53;;;17.10;99.90;;;;;;5094048;28;20251;-59
2021/08/18 00:55:11;;;;;;;14.33;10.20;;;17.00;99.90;;;;;;5093988;28;20261;-59
2021/08/18 00:57:38;;;;;;;14.13;10.57;;;17.00;99.90;;;;;;5093992;28;20327;-58
2021/08/18 01:00:06;;;;;;;15.00;9.93;;;17.10;99.90;;;;;;5093986;28;20204;-59
2021/08/18 01:02:36;;;;;;;14.13;10.30;;;17.10;99.90;;;;;;5093977;28;20648;-59
2021/08/18 01:05:03;;;;;;;15.35;10.73;;;17.10;99.90;;;;;;5093940;28;20186;-59
2021/08/18 01:07:30;;;;;;;13.77;10.27;;;17.10;99.90;;;;;;5094144;28;20235;-58
2021/08/18 01:09:58;;;;;;;15.75;10.30;;;17.10;99.90;;;;;;5093727;28;20215;-59
2021/08/18 01:12:25;;;;;;;16.23;10.23;;;17.10;99.90;;;;;;5093860;28;20703;-59
2021/08/18 01:14:52;;;;;;;16.58;11.35;;;17.00;99.90;;;;;;5093728;28;20211;-58
2021/08/18 01:17:18;;;;;;;17.95;11.20;;;16.90;99.90;;;;;;5093505;28;20224;-59
2021/08/18 01:19:45;;;;;;;16.73;11.07;;;16.80;99.90;;;;;;5093491;28;20212;-59
2021/08/18 01:22:12;;;;;;;14.75;10.73;;;16.80;99.90;;;;;;5093744;28;20223;-58
2021/08/18 01:24:38;;;;;;;19.02;12.10;;;16.70;99.90;;;;;;5093597;28;20204;-58
2021/08/18 01:27:07;;;;;;;18.35;11.60;;;16.80;99.90;;;;;;5093513;28;20220;-59
2021/08/18 01:29:35;;;;;;;19.47;11.30;;;16.80;99.90;;;;;;5093574;28;20208;-58
2021/08/18 01:32:01;;;;;;;18.45;11.57;;;16.90;99.90;;;;;;5093061;28;20231;-59
2021/08/18 01:34:28;;;;;;;17.40;11.32;;;16.90;99.90;;;;;;5093270;28;20204;-59
2021/08/18 01:36:55;;;;;;;17.87;11.13;;;16.90;99.90;;;;;;5093111;28;20414;-59
2021/08/18 01:39:21;;;;;;;18.08;11.63;;;16.90;99.90;;;;;;5093059;28;20204;-60
2021/08/18 01:41:48;;;;;;;16.30;10.95;;;16.90;99.90;;;;;;5093644;28;20196;-59
2021/08/18 01:44:15;;;;;;;17.52;11.27;;;17.00;99.90;;;;;;5092827;28;20238;-59
2021/08/18 01:46:43;;;;;;;15.30;10.43;;;17.00;99.90;;;;;;5092852;28;20224;-59
2021/08/18 01:49:09;;;;;;;18.10;11.32;;;17.00;99.90;;;;;;5092999;28;20257;-59
2021/08/18 01:51:36;;;;;;;17.20;11.63;;;17.10;99.90;;;;;;5092983;28;20227;-59
2021/08/18 01:54:03;;;;;;;18.03;10.93;;;17.10;99.90;;;;;;5092693;28;20672;-58
2021/08/18 01:56:29;;;;;;;19.43;11.80;;;17.20;99.90;;;;;;5092877;28;20220;-59
2021/08/18 01:58:56;;;;;;;17.90;11.70;;;17.20;99.90;;;;;;5092525;28;20208;-58
2021/08/18 02:01:23;;;;;;;18.83;11.50;;;17.20;99.90;;;;;;5092665;28;20620;-58
2021/08/18 02:03:52;;;;;;;16.10;11.57;;;17.20;99.90;;;;;;5092476;28;20208;-58
2021/08/18 02:06:20;;;;;;;15.20;10.90;;;17.20;99.90;;;;;;5093024;28;20228;-59
2021/08/18 02:08:46;;;;;;;16.00;10.70;;;17.20;99.90;;;;;;5092763;28;20260;-58
2021/08/18 02:11:13;;;;;;;15.07;10.70;;;17.20;99.90;;;;;;5092634;28;20211;-59
2021/08/18 02:13:40;;;;;;;16.17;10.83;;;17.20;99.90;;;;;;5092481;28;20660;-59
2021/08/18 02:16:06;;;;;;;13.33;9.97;;;17.20;99.90;;;;;;5092743;28;20228;-58
2021/08/18 02:18:34;;;;;;;17.80;10.70;;;17.20;99.90;;;;;;5092119;28;20219;-58
2021/08/18 02:21:02;;;;;;;16.20;10.77;;;17.30;99.90;;;;;;5092296;28;20672;-59
2021/08/18 02:23:29;;;;;;;14.85;10.10;;;17.30;99.90;;;;;;5092528;28;20292;-58
2021/08/18 02:25:55;;;;;;;16.37;9.70;;;17.30;99.90;;;;;;5092448;28;20208;-58
2021/08/18 02:28:22;;;;;;;16.40;10.77;;;17.30;99.90;;;;;;5092338;28;20204;-60
2021/08/18 02:30:49;;;;;;;17.10;10.52;;;17.30;99.90;;;;;;5092629;28;20254;-59
2021/08/18 02:33:16;;;;;;;14.97;9.90;;;17.30;99.90;;;;;;5092295;28;20224;-59
2021/08/18 02:35:43;;;;;;;13.48;9.43;;;17.40;99.90;;;;;;5091979;28;20676;-59
2021/08/18 02:38:11;;;;;;;15.33;10.07;;;17.40;99.90;;;;;;5092076;28;20261;-58
2021/08/18 02:40:39;;;;;;;14.15;9.90;;;17.40;99.90;;;;;;5091941;28;20204;-58
2021/08/18 02:43:06;;;;;;;13.75;9.43;;;17.40;99.90;;;;;;5092061;28;20211;-59
2021/08/18 02:45:33;;;;;;;15.13;9.88;;;17.40;99.90;;;;;;5091793;28;20213;-59
2021/08/18 02:48:00;;;;;;;14.77;9.77;;;17.40;99.90;;;;;;5091732;28;20602;-58
2021/08/18 02:50:29;;;;;;;13.45;10.02;;;17.40;99.90;;;;;;5091730;28;20204;-59
2021/08/18 02:52:56;;;;;;;14.10;10.45;;;17.50;99.90;;;;;;5091657;28;20223;-58
2021/08/18 02:55:25;;;;;;;13.45;9.45;;;17.40;99.90;;;;;;5091656;28;20219;-59
2021/08/18 02:57:51;;;;;;;14.57;9.25;;;17.40;99.90;;;;;;5091640;28;20282;-58
2021/08/18 03:00:18;;;;;;;12.60;9.15;;;17.30;99.90;;;;;;5091750;28;20212;-59
2021/08/18 03:02:45;;;;;;;14.48;9.07;;;17.20;99.90;;;;;;5091525;28;20201;-58
2021/08/18 03:05:13;;;;;;;15.32;10.60;;;17.30;99.90;;;;;;5091272;28;20219;-58
2021/08/18 03:07:40;;;;;;;12.90;7.90;;;17.20;99.90;;;;;;5091215;28;20311;-58
2021/08/18 03:10:08;;;;;;;12.03;8.57;;;17.30;99.90;;;;;;5091503;28;20204;-58
2021/08/18 03:12:37;;;;;;;10.98;8.55;;;17.30;99.90;;;;;;5091349;28;20254;-59
2021/08/18 03:15:04;;;;;;;13.32;8.48;;;17.30;99.90;;;;;;5091194;28;20254;-59
2021/08/18 03:17:30;;;;;;;12.25;7.97;;;17.40;99.90;;;;;;5091103;28;20601;-58
2021/08/18 03:19:57;;;;;;;12.63;8.23;;;17.40;99.90;;;;;;5091297;28;20656;-58
2021/08/18 03:22:24;;;;;;;10.73;8.02;;;17.40;99.90;;;;;;5091022;28;20561;-58
2021/08/18 03:24:51;;;;;;;11.90;8.30;;;17.40;99.90;;;;;;5091100;28;20204;-58
2021/08/18 03:27:17;;;;;;;11.45;8.18;;;17.40;99.90;;;;;;5091042;28;20742;-59
2021/08/18 03:29:45;;;;;;;13.57;8.63;;;17.50;99.90;;;;;;5090627;28;20200;-57
2021/08/18 03:32:12;;;;;;;12.05;8.07;;;17.50;99.90;;;;;;5090546;28;20228;-57
2021/08/18 03:34:39;;;;;;;10.82;7.55;;;17.50;99.90;;;;;;5090914;28;20204;-57
2021/08/18 03:37:06;;;;;;;10.90;7.50;;;17.50;99.90;;;;;;5113729;22;20593;-67
2021/08/18 03:39:33;;;;;;;11.83;7.27;;;17.50;99.90;;;;;;5091015;28;20204;-64
2021/08/18 03:42:00;;;;;;;11.18;6.93;;;17.50;99.90;;;;;;5090989;28;20212;-65
2021/08/18 03:44:27;;;;;;;9.45;6.70;;;17.40;99.90;;;;;;5090681;28;20227;-65
2021/08/18 03:46:55;;;;;;;9.83;6.93;;;17.40;99.90;;;;;;5090655;28;20321;-65
2021/08/18 03:49:22;;;;;;;8.70;6.93;;;17.40;99.90;;;;;;5091118;28;20676;-65
2021/08/18 03:51:50;;;;;;;10.27;7.17;;;17.40;99.90;;;;;;5090906;28;20299;-65
2021/08/18 03:54:17;;;;;;;11.87;6.97;;;17.40;99.90;;;;;;5090796;28;20303;-65
2021/08/18 03:56:44;;;;;;;9.20;6.00;;;17.50;99.90;;;;;;5090643;28;20250;-64
2021/08/18 03:59:11;;;;;;;9.63;7.28;;;17.50;99.90;;;;;;5090624;28;20200;-65
2021/08/18 04:01:38;;;;;;;11.45;7.70;;;17.50;99.90;;;;;;5090645;28;20479;-65
2021/08/18 04:04:06;;;;;;;9.82;7.03;;;17.40;99.90;;;;;;5090702;28;20200;-66
2021/08/18 04:06:33;;;;;;;9.90;8.10;;;17.40;99.90;;;;;;5091042;28;20277;-66
2021/08/18 04:08:59;;;;;;;10.50;6.57;;;17.50;99.90;;;;;;5090655;28;20212;-65
2021/08/18 04:11:27;;;;;;;6.65;5.20;;;17.50;99.90;;;;;;5090516;28;20671;-65
2021/08/18 04:13:53;;;;;;;8.85;6.50;;;17.40;99.90;;;;;;5090239;28;20703;-66
2021/08/18 04:16:20;;;;;;;8.52;6.80;;;17.30;99.90;;;;;;5090401;28;20204;-65
2021/08/18 04:18:47;;;;;;;6.95;5.75;;;17.30;99.90;;;;;;5090384;28;20208;-66
2021/08/18 04:21:15;;;;;;;6.38;5.03;;;17.30;99.90;;;;;;5090446;28;20248;-66
2021/08/18 04:23:42;;;;;;;6.75;5.43;;;17.40;99.90;;;;;;5090730;28;20205;-66
2021/08/18 04:26:09;;;;;;;6.82;5.10;;;17.40;99.90;;;;;;5090538;28;20253;-66
2021/08/18 04:28:35;;;;;;;12.00;7.47;;;17.30;99.90;;;;;;5090384;28;20206;-64
2021/08/18 04:31:02;;;;;;;8.50;5.40;;;17.30;99.90;;;;;;5090277;28;20204;-64
2021/08/18 04:33:29;;;;;;;10.53;6.70;;;17.30;99.90;;;;;;5090397;28;20236;-65
2021/08/18 04:35:55;;;;;;;7.80;5.25;;;17.30;99.90;;;;;;5090500;28;20664;-66
2021/08/18 04:38:24;;;;;;;7.10;5.20;;;17.30;99.90;;;;;;5090139;28;20754;-65
2021/08/18 04:40:51;;;;;;;9.10;6.17;;;17.30;99.90;;;;;;5090536;28;20204;-65
2021/08/18 04:43:17;;;;;;;6.07;4.83;;;17.30;99.90;;;;;;5093632;28;20207;-66
2021/08/18 04:45:44;;;;;;;6.68;4.68;;;17.30;99.90;;;;;;5093926;28;20216;-65
2021/08/18 04:48:11;;;;;;;5.55;4.07;;;17.40;99.90;;;;;;5093926;28;20224;-64
2021/08/18 04:50:38;;;;;;;6.18;4.50;;;17.40;99.90;;;;;;5094470;28;20209;-66
2021/08/18 04:53:08;;;;;;;4.80;4.03;;;17.40;99.90;;;;;;5094047;28;20625;-66
2021/08/18 04:55:37;;;;;;;4.57;3.65;;;17.40;99.90;;;;;;5093906;28;20257;-65
2021/08/18 04:58:03;;;;;;;7.18;4.30;;;17.40;99.90;;;;;;5093658;28;20235;-65
2021/08/18 05:00:30;;;;;;;5.55;4.05;;;17.50;99.90;;;;;;5093974;28;20220;-66
2021/08/18 05:02:57;;;;;;;8.02;4.40;;;17.50;99.90;;;;;;5094064;28;20211;-64
2021/08/18 05:05:24;;;;;;;5.50;4.22;;;17.60;99.90;;;;;;5094692;28;20223;-65
2021/08/18 05:07:51;;;;;;;8.70;4.43;;;17.60;99.90;;;;;;5094100;28;20224;-66
2021/08/18 05:10:18;;;;;;;6.07;4.63;;;17.60;99.90;;;;;;5093640;28;20204;-66
2021/08/18 05:12:46;;;;;;;8.43;5.25;;;17.70;99.90;;;;;;5093219;28;20220;-66
2021/08/18 05:15:13;;;;;;;7.97;5.15;;;17.70;99.90;;;;;;5093344;28;20200;-66
2021/08/18 05:17:40;;;;;;;6.17;4.67;;;17.60;99.90;;;;;;5093767;28;20229;-66
2021/08/18 05:20:08;;;;;;;7.25;4.45;;;17.50;99.90;;;;;;5093408;28;20699;-66
2021/08/18 05:22:35;;;;;;;5.18;3.35;;;17.40;99.90;;;;;;5093164;28;20208;-65
2021/08/18 05:25:01;;;;;;;6.53;3.60;;;17.30;99.90;;;;;;5092854;28;20208;-65
2021/08/18 05:27:28;;;;;;;5.10;3.37;;;17.30;99.90;;;;;;5092670;28;20711;-65
2021/08/18 05:29:56;;;;;;;5.88;3.35;;;17.30;99.90;;;;;;5092919;28;20204;-65
2021/08/18 05:32:23;;;;;;;4.90;3.15;;;17.30;99.90;;;;;;5092617;28;20333;-65
2021/08/18 05:34:49;;;;;;;5.57;3.63;;;17.40;99.90;;;;;;5092735;28;20254;-65
2021/08/18 05:37:16;;;;;;;4.97;3.67;;;17.40;99.90;;;;;;5092867;28;20837;-65
2021/08/18 05:39:43;;;;;;;6.78;3.28;;;17.50;99.90;;;;;;5092924;28;20200;-65
2021/08/18 05:42:09;;;;;;;8.60;4.05;;;17.60;99.90;;;;;;5093251;28;20200;-65
2021/08/18 05:44:36;;;;;;;5.13;4.00;;;17.60;99.90;;;;;;5092596;28;20209;-66
2021/08/18 05:47:04;;;;;;;7.07;4.18;;;17.70;99.90;;;;;;5093029;28;20235;-65
2021/08/18 05:49:31;;;;;;;6.40;4.13;;;17.70;99.90;;;;;;5092881;28;20205;-65
2021/08/18 05:51:58;;;;;;;6.40;4.43;;;17.70;99.90;;;;;;5092929;28;20204;-66
2021/08/18 05:54:24;;;;;;;8.07;4.97;;;17.70;99.90;;;;;;5091615;28;20722;-65
2021/08/18 05:56:52;;;;;;;6.60;4.85;;;17.70;99.90;;;;;;5092996;28;20232;-66
2021/08/18 05:59:18;;;;;;;7.90;4.68;;;17.60;99.90;;;;;;5092767;28;20207;-65
2021/08/18 06:01:45;;;;;;;6.35;4.63;;;17.60;99.90;;;;;;5092680;28;20208;-65
2021/08/18 06:04:14;;;;;;;7.57;4.90;;;17.60;99.90;;;;;;5092652;28;20257;-66
2021/08/18 06:06:40;;;;;;;5.70;4.57;;;17.50;99.90;;;;;;5092393;28;20249;-65
2021/08/18 06:09:07;;;;;;;6.32;4.85;;;17.60;99.90;;;;;;5092429;28;20865;-64
2021/08/18 06:11:34;;;;;;;6.93;5.05;;;17.60;99.90;;;;;;5092886;28;20205;-66
2021/08/18 06:14:00;;;;;;;7.20;4.90;;;17.60;99.90;;;;;;5092451;28;20227;-64
2021/08/18 06:16:27;;;;;;;7.88;4.45;;;17.60;99.90;;;;;;5092564;28;20232;-65
2021/08/18 06:18:54;;;;;;;7.10;4.82;;;17.70;99.90;;;;;;5092582;28;20282;-65
2021/08/18 06:21:22;;;;;;;7.68;4.50;;;17.70;99.90;;;;;;5092364;28;20204;-65
2021/08/18 06:23:49;;;;;;;8.25;4.30;;;17.80;99.90;;;;;;5092454;28;20227;-65
2021/08/18 06:26:15;;;;;;;6.10;4.18;;;17.80;99.90;;;;;;5092489;28;20212;-66
2021/08/18 06:28:42;;;;;;;8.15;4.53;;;17.80;99.90;;;;;;5091973;28;20690;-65
2021/08/18 06:31:10;;;;;;;7.38;4.55;;;17.90;99.90;;;;;;5092262;28;20706;-65
2021/08/18 06:33:36;;;;;;;7.00;4.55;;;17.90;99.90;;;;;;5091727;28;20224;-65
2021/08/18 06:36:04;;;;;;;6.30;4.88;;;17.90;99.90;;;;;;5092342;28;20205;-64
2021/08/18 06:38:32;;;;;;;8.18;5.00;;;18.00;99.90;;;;;;5092178;28;20641;-65
2021/08/18 06:40:59;;;;;;;7.72;5.57;;;17.90;99.90;;;;;;5091828;28;20520;-65
2021/08/18 06:43:25;;;;;;;7.30;5.35;;;17.90;99.90;;;;;;5091508;28;20721;-65
2021/08/18 06:45:52;;;;;;;10.60;6.43;;;18.00;99.90;;;;;;5091780;28;20257;-64
2021/08/18 06:48:19;;;;;;;9.10;5.43;;;18.10;99.90;;;;;;5091413;28;20230;-65
2021/08/18 06:50:46;;;;;;;6.35;5.03;;;18.10;99.90;;;;;;5091235;28;20211;-64
2021/08/18 06:53:13;;;;;;;7.95;5.50;;;18.30;99.90;;;;;;5091773;28;20321;-65
2021/08/18 06:55:41;;;;;;;8.77;5.25;;;18.40;99.90;;;;;;5091481;28;20211;-66
2021/08/18 06:58:07;;;;;;;8.68;4.43;;;18.50;99.90;;;;;;5091347;28;20224;-64
2021/08/18 07:00:34;;;;;;;7.93;4.40;;;18.70;99.90;;;;;;5091501;28;20207;-65
2021/08/18 07:03:01;;;;;;;4.53;3.85;;;18.80;99.90;;;;;;5091446;28;20691;-65
2021/08/18 07:05:32;;;;;;;6.50;4.00;;;18.90;99.90;;;;;;5091251;28;20616;-66
2021/08/18 07:07:59;;;;;;;5.88;4.07;;;19.00;99.90;;;;;;5091352;28;20235;-66
2021/08/18 07:10:25;;;;;;;6.38;4.20;;;18.90;99.90;;;;;;5091229;28;20694;-62
2021/08/18 07:12:54;;;;;;;14.52;9.40;;;18.90;99.90;;;;;;5090981;28;20699;-62
2021/08/18 07:15:20;;;;;;;10.57;8.40;;;18.90;99.90;;;;;;5091365;28;20311;-62
2021/08/18 07:17:47;;;;;;;9.80;5.28;;;19.00;99.90;;;;;;5090863;28;20577;-63
2021/08/18 07:20:14;;;;;;;7.00;5.60;;;19.10;99.90;;;;;;5091274;28;20629;-62
2021/08/18 07:22:41;;;;;;;10.38;7.30;;;19.10;99.90;;;;;;5091154;28;20679;-63
2021/08/18 07:25:08;;;;;;;12.40;8.13;;;19.30;99.90;;;;;;5091124;28;20206;-63
2021/08/18 07:27:35;;;;;;;8.93;4.50;;;19.30;99.90;;;;;;5090901;28;20242;-62
2021/08/18 07:30:04;;;;;;;5.40;4.32;;;19.40;99.90;;;;;;5091198;28;20204;-61
2021/08/18 07:32:32;;;;;;;9.82;4.90;;;19.50;99.90;;;;;;5091192;28;20508;-60
2021/08/18 07:34:58;;;;;;;6.07;4.65;;;19.60;99.90;;;;;;5090892;28;20235;-66
2021/08/18 07:37:27;;;;;;;7.78;4.80;;;19.50;99.90;;;;;;5090847;28;20292;-64
2021/08/18 07:39:55;;;;;;;6.53;4.55;;;19.70;99.90;;;;;;5090806;28;20299;-65
2021/08/18 07:42:22;;;;;;;6.82;4.18;;;19.80;99.90;;;;;;5090781;28;20295;-66
2021/08/18 07:44:49;;;;;;;5.75;4.22;;;20.20;99.90;;;;;;5090847;28;20205;-66
2021/08/18 07:47:17;;;;;;;7.47;4.40;;;20.40;99.90;;;;;;5091110;28;20224;-67
2021/08/18 07:49:44;;;;;;;7.65;4.22;;;20.70;99.90;;;;;;5091071;28;20474;-66
2021/08/18 07:52:10;;;;;;;6.03;3.80;;;21.00;99.90;;;;;;5091292;28;20200;-66
2021/08/18 07:54:37;;;;;;;4.65;3.72;;;21.40;99.90;;;;;;5090596;28;20224;-67
2021/08/18 07:57:04;;;;;;;5.57;3.83;;;21.80;99.90;;;;;;5090749;28;20224;-66
2021/08/18 07:59:31;;;;;;;4.13;3.38;;;22.30;99.90;;;;;;5090597;28;20592;-67
2021/08/18 08:01:59;;;;;;;3.80;3.10;;;22.70;99.90;;;;;;5091024;28;20211;-67
2021/08/18 08:04:28;;;;;;;5.50;3.80;;;23.30;99.90;;;;;;5090524;28;20235;-65
2021/08/18 08:06:54;;;;;;;4.45;3.70;;;23.90;99.90;;;;;;5090521;28;20262;-66
2021/08/18 08:09:21;;;;;;;5.22;3.50;;;24.30;99.90;;;;;;5090267;28;20677;-66
2021/08/18 08:11:48;;;;;;;4.20;3.50;;;24.30;99.90;;;;;;5090634;28;20208;-66
2021/08/18 08:14:14;;;;;;;5.03;4.30;;;24.20;99.90;;;;;;5090171;28;20228;-66
2021/08/18 08:16:41;;;;;;;4.72;3.75;;;23.90;99.90;;;;;;5091469;28;20231;-65
2021/08/18 08:19:09;;;;;;;5.05;3.80;;;23.70;99.90;;;;;;5094652;28;20248;-66
2021/08/18 08:21:37;;;;;;;4.05;3.15;;;23.50;99.90;;;;;;5094636;28;20226;-65
2021/08/18 08:24:04;;;;;;;4.95;2.95;;;23.40;99.90;;;;;;5094399;28;20223;-65
2021/08/18 08:26:31;;;;;;;5.28;3.50;;;23.20;99.90;;;;;;5094169;28;20357;-66
2021/08/18 08:28:57;;;;;;;3.03;2.42;;;23.00;99.90;;;;;;5094466;28;20211;-65
2021/08/18 08:31:24;;;;;;;2.70;2.10;;;22.80;99.90;;;;;;5094382;28;20240;-64
2021/08/18 08:33:51;;;;;;;2.80;2.00;;;22.80;99.90;;;;;;5094227;28;20245;-64
2021/08/18 08:36:17;;;;;;;1.95;1.75;;;22.90;99.90;;;;;;5094220;28;20642;-65
2021/08/18 08:38:45;;;;;;;2.90;1.98;;;22.90;99.90;;;;;;5093986;28;20212;-64
2021/08/18 08:41:12;;;;;;;2.45;1.98;;;23.00;99.90;;;;;;5094469;28;20225;-66
2021/08/18 08:43:41;;;;;;;2.55;1.80;;;23.20;99.90;;;;;;5093926;28;20212;-66
2021/08/18 08:46:09;;;;;;;3.22;1.63;;;23.40;99.90;;;;;;5094065;28;20215;-65
2021/08/18 08:48:35;;;;;;;2.60;1.42;;;23.60;99.90;;;;;;5094299;28;20215;-65
2021/08/18 08:51:02;;;;;;;1.67;1.30;;;23.50;99.90;;;;;;5094250;28;20204;-65
2021/08/18 08:53:30;;;;;;;2.55;1.70;;;23.50;99.90;;;;;;5094109;28;20294;-64
2021/08/18 08:55:58;;;;;;;2.92;2.40;;;23.30;99.90;;;;;;5094303;28;20242;-62
2021/08/18 08:58:24;;;;;;;2.45;1.60;;;23.20;99.90;;;;;;5094386;28;20235;-63
2021/08/18 09:00:51;;;;;;;3.00;1.33;;;23.10;99.90;;;;;;5094040;28;20208;-61
2021/08/18 09:03:22;;;;;;;3.15;2.63;;;23.00;99.90;;;;;;5094097;28;20208;-62
2021/08/18 09:05:49;;;;;;;2.35;1.80;;;22.90;99.90;;;;;;5094059;28;20207;-63
2021/08/18 09:08:18;;;;;;;2.47;1.30;;;22.90;99.90;;;;;;5093675;28;20723;-64
2021/08/18 09:11:06;;;;;;;1.58;1.27;;;22.80;99.90;;;;;;5094197;28;20207;-63
2021/08/18 09:13:39;;;;;;;2.10;1.20;;;22.50;99.90;;;;;;5093724;28;20223;-63
2021/08/18 09:16:06;;;;;;;1.52;1.20;;;22.40;99.90;;;;;;5093897;28;20247;-62
2021/08/18 09:18:38;;;;;;;3.63;1.50;;;22.30;99.90;;;;;;5093638;28;20204;-63
2021/08/18 09:21:25;;;;;;;2.90;1.60;;;22.20;99.90;;;;;;5094025;28;20212;-63
2021/08/18 09:23:52;;;;;;;4.65;2.38;;;22.10;99.90;;;;;;5093276;28;20257;-62
2021/08/18 09:26:23;;;;;;;0.70;0.70;;;22.10;99.90;;;;;;5093339;28;20667;-62
2021/08/18 09:28:50;;;;;;;0.52;0.50;;;22.30;99.90;;;;;;5093040;28;20215;-62
2021/08/18 09:31:25;;;;;;;3.42;1.17;;;22.40;99.90;;;;;;5093407;28;20303;-62
2021/08/18 09:33:56;;;;;;;0.75;0.60;;;22.60;99.90;;;;;;5093111;28;20265;-62
2021/08/18 09:38:51;;;;;;;0.77;0.57;;;22.10;99.90;;;;;;5071297;28;20220;-59
2021/08/18 09:41:18;;;;;;;0.40;0.40;;;21.70;99.90;;;;;;5072832;28;20205;-59
2021/08/18 09:43:46;;;;;;;3.53;1.20;;;21.40;99.90;;;;;;5072742;28;20208;-59
2021/08/18 09:46:13;;;;;;;1.90;1.30;;;21.20;99.90;;;;;;5073008;28;20291;-60
2021/08/18 09:48:41;;;;;;;2.17;1.00;;;21.30;99.90;;;;;;5091939;28;20227;-59
2021/08/18 09:51:11;;;;;;;2.13;1.35;;;21.60;99.90;;;;;;5093201;28;20227;-60
2021/08/18 09:53:41;;;;;;;1.23;0.80;;;22.10;99.90;;;;;;5092664;28;20215;-59
2021/08/18 09:56:09;;;;;;;0.60;0.40;;;22.70;99.90;;;;;;5092560;28;20626;-60
2021/08/18 09:58:38;;;;;;;0.70;0.70;;;23.00;99.90;;;;;;5092775;28;20220;-58
2021/08/18 10:01:08;;;;;;;1.05;0.77;;;23.10;99.90;;;;;;5092818;28;20261;-60
2021/08/18 10:03:36;;;;;;;1.27;1.08;;;23.10;99.90;;;;;;5092683;28;20210;-60
2021/08/18 10:06:03;;;;;;;5.10;1.83;;;23.30;99.90;;;;;;5092594;28;20211;-60
2021/08/18 10:08:31;;;;;;;1.10;0.80;;;23.20;99.90;;;;;;5092140;28;20228;-60
2021/08/18 10:10:58;;;;;;;2.08;1.30;;;23.20;99.90;;;;;;5092774;28;20212;-60
2021/08/18 10:13:25;;;;;;;1.77;1.10;;;23.10;99.90;;;;;;5092362;28;20596;-59
2021/08/18 10:15:53;;;;;;;1.42;0.77;;;23.20;99.90;;;;;;5092866;28;20228;-60
2021/08/18 10:18:38;;;;;;;1.30;0.93;;;23.20;99.90;;;;;;5092167;28;20636;-60
2021/08/18 10:21:07;;;;;;;1.75;1.05;;;23.20;99.90;;;;;;5092287;28;20298;-58
2021/08/18 10:23:49;;;;;;;1.77;1.17;;;23.30;99.90;;;;;;5092076;28;20208;-60
2021/08/18 10:26:52;;;;;;;1.00;0.90;;;23.00;99.90;;;;;;5092213;28;20254;-58
2021/08/18 10:29:35;;;;;;;0.98;0.93;;;22.60;99.90;;;;;;5092016;28;20428;-58
2021/08/18 10:32:04;;;;;;;6.45;4.57;;;22.30;99.90;;;;;;5089727;28;20269;-63
2021/08/18 10:34:53;;;;;;;3.10;1.58;;;22.00;99.90;;;;;;5081967;28;20463;-64
2021/08/18 10:37:22;;;;;;;1.52;1.00;;;22.00;99.90;;;;;;5085317;28;20327;-62
2021/08/18 10:39:53;;;;;;;2.30;1.80;;;22.10;99.90;;;;;;5090801;28;20657;-62
2021/08/18 10:42:38;;;;;;;0.80;0.80;;;22.00;99.90;;;;;;5091923;28;20644;-62
2021/08/18 10:45:37;;;;;;;2.58;1.70;;;22.00;99.90;;;;;;5090871;28;20671;-64
2021/08/18 10:48:04;;;;;;;1.33;1.17;;;22.20;99.90;;;;;;5091303;28;20228;-61
2021/08/18 10:50:48;;;;;;;2.15;1.95;;;22.40;99.90;;;;;;5091711;28;20207;-65
2021/08/18 10:53:34;;;;;;;1.95;0.95;;;22.50;99.90;;;;;;5092259;28;20211;-61
2021/08/18 10:56:01;;;;;;;1.10;1.00;;;22.60;99.90;;;;;;5091695;28;20659;-62
2021/08/18 10:58:30;;;;;;;0.85;0.85;;;22.60;99.90;;;;;;5090818;28;20235;-60
2021/08/18 11:00:57;;;;;;;1.48;0.77;;;22.50;99.90;;;;;;5091260;28;20215;-60
2021/08/18 11:03:26;;;;;;;1.33;1.08;;;22.70;99.90;;;;;;5091312;28;20201;-62
2021/08/18 11:05:54;;;;;;;1.80;1.23;;;23.20;99.90;;;;;;5091390;28;20200;-59
2021/08/18 11:08:24;;;;;;;1.73;1.10;;;23.70;99.90;;;;;;5091099;28;20232;-62
2021/08/18 11:11:18;;;;;;;1.60;1.23;;;23.90;99.90;;;;;;5091744;28;20322;-62
2021/08/18 11:13:49;;;;;;;1.60;1.17;;;24.10;99.90;;;;;;5043693;28;20226;-61
2021/08/18 11:16:18;;;;;;;2.60;2.40;;;24.30;99.90;;;;;;5091256;28;20694;-62
2021/08/18 11:18:50;;;;;;;1.40;1.20;;;24.50;99.90;;;;;;5090853;28;20231;-60
2021/08/18 11:21:21;;;;;;;2.60;0.80;;;24.70;99.90;;;;;;5091568;28;20204;-60
2021/08/18 11:23:54;;;;;;;1.40;1.30;;;24.90;99.90;;;;;;5090973;28;20291;-61
2021/08/18 11:26:23;;;;;;;2.60;1.05;;;25.30;99.90;;;;;;5091303;28;20196;-61
2021/08/18 11:29:00;;;;;;;1.10;1.00;;;25.50;99.90;;;;;;5091221;28;20325;-63
2021/08/18 11:31:42;;;;;;;2.03;1.60;;;25.40;99.90;;;;;;5091802;28;20612;-62
2021/08/18 11:34:26;;;;;;;1.48;1.10;;;25.00;99.90;;;;;;5091433;28;20227;-63
2021/08/18 11:37:00;;;;;;;1.30;1.20;;;24.60;99.90;;;;;;5091007;28;20651;-63
2021/08/18 11:39:27;;;;;;;2.42;1.50;;;24.60;99.90;;;;;;5092351;28;20208;-63
2021/08/18 11:41:53;;;;;;;2.03;1.40;;;24.60;99.90;;;;;;5091175;28;20667;-63
2021/08/18 11:44:28;;;;;;;1.52;1.35;;;24.40;99.90;;;;;;5090937;28;20295;-62
2021/08/18 11:47:04;;;;;;;2.03;1.50;;;24.20;99.90;;;;;;5090996;28;20643;-60
2021/08/18 11:49:31;;;;;;;1.83;1.73;;;23.90;99.90;;;;;;5090754;28;20611;-60
2021/08/18 11:51:59;;;;;;;1.95;1.55;;;23.50;99.90;;;;;;5089971;28;20204;-60
2021/08/18 11:54:26;;;;;;;2.40;1.27;;;23.30;99.90;;;;;;5090867;28;20211;-63
2021/08/18 11:57:04;;;;;;;3.47;1.38;;;23.20;99.90;;;;;;5090247;28;20223;-62
2021/08/18 11:59:32;;;;;;;6.60;3.72;;;23.30;99.90;;;;;;5090882;28;20203;-62
2021/08/18 12:01:59;;;;;;;1.70;1.30;;;23.60;99.90;;;;;;5090697;28;20485;-63
2021/08/18 12:04:27;;;;;;;3.38;1.27;;;24.10;99.90;;;;;;5090385;28;20679;-63
2021/08/18 12:07:11;;;;;;;1.20;0.90;;;24.60;99.90;;;;;;5090452;28;20772;-63
2021/08/18 12:09:37;;;;;;;1.35;1.13;;;25.00;99.90;;;;;;5090467;28;20237;-63
2021/08/18 12:12:09;;;;;;;2.65;1.00;;;25.40;99.90;;;;;;5090564;28;20204;-63
2021/08/18 12:14:41;;;;;;;1.10;1.00;;;25.60;99.90;;;;;;5090278;28;20204;-63
2021/08/18 12:17:09;;;;;;;3.72;3.25;;;25.80;99.90;;;;;;5090529;28;20232;-63
2021/08/18 12:19:37;;;;;;;5.10;4.57;;;25.90;99.90;;;;;;5090269;28;20231;-62
2021/08/18 12:22:15;;;;;;;1.50;0.90;;;26.00;99.90;;;;;;5091974;28;20289;-63
2021/08/18 12:24:44;;;;;;;1.38;1.00;;;26.10;99.90;;;;;;5090644;28;20269;-62
2021/08/18 12:27:14;;;;;;;1.10;0.88;;;26.50;99.90;;;;;;5090383;28;20228;-61
2021/08/18 12:29:41;;;;;;;0.80;0.70;;;26.70;99.90;;;;;;5090766;28;20206;-60
2021/08/18 12:32:10;;;;;;;0.73;0.60;;;26.80;99.90;;;;;;5090441;28;20212;-64
2021/08/18 12:34:39;;;;;;;1.35;0.90;;;26.50;99.90;;;;;;5090280;28;20682;-62
2021/08/18 12:37:10;;;;;;;0.95;0.88;;;26.40;99.90;;;;;;5090403;28;20260;-62
2021/08/18 12:39:41;;;;;;;1.48;1.00;;;26.50;99.90;;;;;;5090448;28;20216;-62
2021/08/18 12:42:08;;;;;;;1.20;1.00;;;26.70;99.90;;;;;;5090211;28;20582;-62
2021/08/18 12:44:37;;;;;;;1.98;1.30;;;26.70;99.90;;;;;;5090039;28;20242;-62
2021/08/18 12:47:13;;;;;;;2.67;1.20;;;26.50;99.90;;;;;;5089938;28;20719;-62
2021/08/18 12:49:49;;;;;;;1.15;0.93;;;26.40;99.90;;;;;;5090427;28;20239;-62